createdAt,value
2022-09-03T00:02:15.640Z,1.90
2022-09-03T00:05:27.642Z,1.90
2022-09-03T00:08:40.731Z,2.07
2022-09-03T00:11:55.942Z,2.10
2022-09-03T00:15:08.716Z,2.17
2022-09-03T00:18:20.516Z,2.43
2022-09-03T00:21:38.169Z,1.80
2022-09-03T00:24:46.269Z,2.23
2022-09-03T00:27:58.997Z,2.20
2022-09-03T00:31:21.596Z,2.50
2022-09-03T00:34:35.780Z,2.30
2022-09-03T00:37:42.219Z,2.50
2022-09-03T00:41:07.056Z,2.00
2022-09-03T00:44:28.607Z,2.27
2022-09-03T00:47:44.830Z,1.87
2022-09-03T00:51:08.139Z,2.20
2022-09-03T00:54:24.122Z,2.30
2022-09-03T00:57:45.782Z,2.23
2022-09-03T01:00:55.710Z,2.57
2022-09-03T01:04:11.848Z,2.43
2022-09-03T01:07:34.441Z,2.47
2022-09-03T01:10:53.582Z,2.40
2022-09-03T01:14:06.705Z,2.27
2022-09-03T01:17:20.171Z,2.60
2022-09-03T01:20:41.186Z,2.40
2022-09-03T01:24:23.476Z,2.50
2022-09-03T01:27:42.227Z,2.50
2022-09-03T01:30:59.924Z,2.50
2022-09-03T01:34:19.329Z,2.80
2022-09-03T01:37:38.048Z,2.50
2022-09-03T01:40:56.784Z,2.70
2022-09-03T01:44:11.943Z,2.50
2022-09-03T01:47:33.035Z,2.80
2022-09-03T01:50:47.949Z,2.77
2022-09-03T01:54:06.710Z,2.70
2022-09-03T01:57:47.512Z,2.60
2022-09-03T02:00:59.675Z,2.60
2022-09-03T02:04:23.734Z,2.77
2022-09-03T02:07:35.093Z,2.50
2022-09-03T02:10:44.652Z,2.30
2022-09-03T02:13:55.303Z,2.20
2022-09-03T02:17:03.827Z,2.20
2022-09-03T02:20:20.264Z,2.80
2022-09-03T02:23:28.391Z,2.87
2022-09-03T02:26:35.009Z,2.80
2022-09-03T02:29:41.832Z,3.20
2022-09-03T02:32:47.930Z,2.60
2022-09-03T02:35:58.375Z,3.00
2022-09-03T02:39:04.673Z,2.73
2022-09-03T02:42:15.874Z,2.83
2022-09-03T02:45:30.141Z,2.93
2022-09-03T02:48:37.087Z,2.97
2022-09-03T02:51:47.286Z,3.03
2022-09-03T02:54:54.076Z,3.30
2022-09-03T02:58:00.669Z,3.50
2022-09-03T03:01:09.866Z,3.27
2022-09-03T03:04:15.820Z,3.80
2022-09-03T03:07:43.241Z,3.83
2022-09-03T03:10:49.572Z,2.90
2022-09-03T03:13:56.452Z,3.07
2022-09-03T03:17:04.136Z,3.33
2022-09-03T03:20:12.769Z,2.87
2022-09-03T03:23:21.540Z,3.63
2022-09-03T03:26:28.495Z,3.33
2022-09-03T03:29:34.356Z,3.57
2022-09-03T03:32:41.436Z,3.20
2022-09-03T03:35:48.131Z,3.03
2022-09-03T03:39:03.647Z,3.10
2022-09-03T03:42:09.958Z,3.37
2022-09-03T03:45:16.684Z,3.40
2022-09-03T03:48:22.646Z,3.40
2022-09-03T03:51:32.891Z,3.00
2022-09-03T03:54:41.652Z,3.27
2022-09-03T03:57:48.416Z,3.00
2022-09-03T04:00:55.204Z,3.27
2022-09-03T04:04:03.491Z,2.93
2022-09-03T04:07:10.672Z,3.17
2022-09-03T04:10:20.289Z,3.10
2022-09-03T04:13:27.618Z,3.07
2022-09-03T04:16:35.225Z,3.30
2022-09-03T04:19:41.317Z,3.67
2022-09-03T04:22:51.833Z,3.37
2022-09-03T04:26:00.861Z,3.40
2022-09-03T04:29:11.055Z,3.10
2022-09-03T04:32:32.916Z,3.63
2022-09-03T04:35:41.563Z,3.50
2022-09-03T04:38:49.742Z,3.10
2022-09-03T04:42:00.149Z,3.27
2022-09-03T04:45:08.726Z,3.40
2022-09-03T04:48:15.714Z,3.40
2022-09-03T04:51:23.796Z,3.20
2022-09-03T04:54:30.941Z,3.07
2022-09-03T04:57:43.233Z,3.30
2022-09-03T05:00:50.297Z,3.40
2022-09-03T05:03:56.230Z,2.97
2022-09-03T05:07:03.649Z,3.30
2022-09-03T05:10:13.252Z,3.30
2022-09-03T05:13:22.968Z,2.80
2022-09-03T05:16:30.512Z,3.10
2022-09-03T05:19:37.306Z,3.70
2022-09-03T05:22:43.477Z,3.50
2022-09-03T05:25:59.401Z,3.23
2022-09-03T05:29:10.383Z,3.33
2022-09-03T05:32:17.615Z,3.53
2022-09-03T05:35:26.040Z,3.20
2022-09-03T05:38:35.268Z,3.20
2022-09-03T05:41:41.441Z,3.70
2022-09-03T05:44:51.553Z,3.57
2022-09-03T05:47:57.422Z,3.10
2022-09-03T05:51:06.854Z,3.67
2022-09-03T05:54:13.370Z,3.17
2022-09-03T05:57:20.154Z,3.50
2022-09-03T06:00:28.849Z,3.07
2022-09-03T06:03:35.777Z,3.57
2022-09-03T06:06:43.330Z,4.10
2022-09-03T06:09:50.674Z,4.23
2022-09-03T06:13:04.152Z,3.70
2022-09-03T06:16:13.755Z,3.30
2022-09-03T06:19:20.556Z,3.80
2022-09-03T06:22:28.947Z,3.87
2022-09-03T06:25:35.244Z,3.47
2022-09-03T06:28:44.009Z,3.33
2022-09-03T06:31:52.978Z,3.97
2022-09-03T06:34:59.727Z,4.20
2022-09-03T06:38:07.892Z,4.23
2022-09-03T06:41:19.551Z,3.63
2022-09-03T06:44:25.487Z,3.77
2022-09-03T06:47:35.949Z,4.37
2022-09-03T06:50:41.825Z,3.77
2022-09-03T06:53:50.625Z,4.47
2022-09-03T06:56:56.528Z,3.93
2022-09-03T07:00:04.893Z,4.10
2022-09-03T07:03:13.538Z,3.60
2022-09-03T07:06:21.940Z,3.30
2022-09-03T07:09:27.927Z,3.37
2022-09-03T07:12:38.019Z,3.03
2022-09-03T07:15:44.474Z,3.20
2022-09-03T07:18:54.821Z,3.30
2022-09-03T07:22:01.058Z,3.03
2022-09-03T07:25:09.691Z,3.07
2022-09-03T07:28:17.184Z,3.47
2022-09-03T07:31:26.973Z,3.20
2022-09-03T07:34:35.980Z,3.23
2022-09-03T07:37:45.454Z,3.13
2022-09-03T07:40:52.824Z,3.00
2022-09-03T07:44:00.308Z,2.93
2022-09-03T07:47:08.341Z,2.60
2022-09-03T07:50:18.262Z,2.80
2022-09-03T07:53:25.396Z,2.53
2022-09-03T07:56:35.289Z,2.00
2022-09-03T07:59:41.251Z,2.53
2022-09-03T08:02:48.270Z,2.10
2022-09-03T08:05:57.621Z,2.40
2022-09-03T08:09:06.718Z,2.50
2022-09-03T08:12:12.625Z,2.37
2022-09-03T08:15:19.347Z,2.30
2022-09-03T08:18:26.063Z,2.53
2022-09-03T08:21:36.759Z,2.40
2022-09-03T08:24:42.843Z,2.40
2022-09-03T08:27:49.852Z,2.60
2022-09-03T08:30:56.013Z,2.80
2022-09-03T08:34:07.156Z,2.70
2022-09-03T08:37:16.093Z,2.77
2022-09-03T08:40:25.757Z,2.87
2022-09-03T08:43:32.345Z,2.90
2022-09-03T08:46:51.558Z,3.10
2022-09-03T08:50:03.557Z,2.80
2022-09-03T08:53:21.140Z,2.60
2022-09-03T08:56:30.009Z,2.60
2022-09-03T08:59:37.479Z,2.60
2022-09-03T09:02:55.812Z,2.60
2022-09-03T09:06:12.024Z,3.07
2022-09-03T09:09:30.033Z,2.67
2022-09-03T09:12:46.907Z,2.40
2022-09-03T09:16:07.216Z,2.47
2022-09-03T09:19:28.429Z,2.77
2022-09-03T09:22:38.569Z,3.00
2022-09-03T09:25:51.792Z,3.27
2022-09-03T09:29:03.728Z,3.67
2022-09-03T09:32:13.867Z,3.17
2022-09-03T09:35:21.329Z,3.20
2022-09-03T09:38:33.039Z,3.43
2022-09-03T09:41:41.818Z,3.10
2022-09-03T09:44:48.662Z,2.87
2022-09-03T09:47:59.903Z,2.73
2022-09-03T09:51:10.381Z,2.90
2022-09-03T09:54:20.444Z,2.80
2022-09-03T09:57:29.937Z,2.70
2022-09-03T10:00:37.995Z,2.70
2022-09-03T10:03:53.797Z,3.20
2022-09-03T10:07:11.367Z,3.20
2022-09-03T10:10:20.756Z,3.37
2022-09-03T10:13:38.240Z,3.10
2022-09-03T10:16:49.855Z,3.13
2022-09-03T10:20:19.753Z,2.50
2022-09-03T10:23:28.847Z,2.73
2022-09-03T10:26:35.067Z,2.77
2022-09-03T10:29:44.954Z,3.30
2022-09-03T10:33:06.643Z,3.00
2022-09-03T10:36:21.541Z,3.10
2022-09-03T10:39:43.627Z,3.00
2022-09-03T10:43:03.531Z,2.83
2022-09-03T10:46:14.582Z,2.67
2022-09-03T10:49:45.631Z,2.80
2022-09-03T10:53:09.567Z,2.30
2022-09-03T10:56:20.613Z,3.10
2022-09-03T10:59:46.472Z,2.43
2022-09-03T11:03:28.499Z,2.83
2022-09-03T11:06:51.970Z,2.58
2022-09-03T11:10:06.639Z,2.67
2022-09-03T11:13:17.678Z,2.58
2022-09-03T11:16:29.249Z,2.63
2022-09-03T11:19:46.337Z,2.33
2022-09-03T11:22:57.629Z,2.70
2022-09-03T11:26:09.013Z,2.40
2022-09-03T11:29:21.117Z,2.85
2022-09-03T11:32:36.219Z,2.72
2022-09-03T11:35:46.314Z,2.47
2022-09-03T11:38:52.271Z,2.90
2022-09-03T11:42:07.581Z,2.92
2022-09-03T11:45:26.021Z,2.72
2022-09-03T11:48:40.302Z,2.78
2022-09-03T11:52:03.527Z,2.75
2022-09-03T11:55:11.252Z,2.70
2022-09-03T11:58:27.376Z,3.00
2022-09-03T12:01:38.066Z,3.22
2022-09-03T12:04:52.760Z,3.10
2022-09-03T12:08:32.689Z,3.25
2022-09-03T12:11:51.735Z,2.97
2022-09-03T12:15:08.472Z,2.78
2022-09-03T12:18:24.884Z,3.58
2022-09-03T12:21:31.882Z,3.35
2022-09-03T12:24:44.238Z,3.55
2022-09-03T12:27:51.603Z,3.33
2022-09-03T12:30:58.559Z,2.92
2022-09-03T12:34:18.110Z,3.30
2022-09-03T12:44:30.296Z,3.77
2022-09-03T12:47:42.709Z,3.37
2022-09-03T12:50:56.523Z,3.00
2022-09-03T12:54:04.418Z,3.10
2022-09-03T12:57:13.397Z,3.22
2022-09-03T13:00:21.840Z,3.00
2022-09-03T13:03:34.703Z,3.10
2022-09-03T13:06:53.083Z,3.20
2022-09-03T13:10:08.361Z,3.13
2022-09-03T13:13:27.185Z,2.90
2022-09-03T13:16:59.306Z,3.25
2022-09-03T13:20:27.838Z,3.13
2022-09-03T13:24:10.559Z,3.50
2022-09-03T13:27:26.859Z,3.10
2022-09-03T13:30:41.786Z,2.80
2022-09-03T13:33:54.832Z,2.95
2022-09-03T13:37:10.334Z,2.67
2022-09-03T13:40:27.679Z,3.47
2022-09-03T13:43:38.188Z,3.20
2022-09-03T13:46:55.291Z,3.25
2022-09-03T13:50:23.715Z,3.10
2022-09-03T13:53:41.478Z,2.83
2022-09-03T13:57:00.503Z,2.85
2022-09-03T14:00:11.742Z,2.92
2022-09-03T14:03:35.154Z,3.30
2022-09-03T14:06:47.271Z,2.78
2022-09-03T14:10:03.559Z,3.17
2022-09-03T14:13:20.853Z,3.10
2022-09-03T14:16:34.399Z,2.80
2022-09-03T14:19:49.895Z,2.90
2022-09-03T14:23:03.545Z,3.58
2022-09-03T14:26:31.085Z,2.83
2022-09-03T14:29:54.581Z,3.20
2022-09-03T14:33:11.328Z,3.00
2022-09-03T14:36:30.475Z,3.03
2022-09-03T14:39:42.985Z,2.95
2022-09-03T14:43:18.883Z,3.50
2022-09-03T14:46:45.291Z,3.65
2022-09-03T14:50:15.521Z,3.27
2022-09-03T14:53:54.763Z,2.83
2022-09-03T14:57:14.261Z,3.00
2022-09-03T15:00:27.089Z,3.20
2022-09-03T15:03:50.757Z,2.83
2022-09-03T15:07:19.401Z,3.15
2022-09-03T15:10:40.364Z,3.05
2022-09-03T15:13:52.998Z,3.33
2022-09-03T15:17:04.142Z,2.88
2022-09-03T15:20:25.828Z,2.50
2022-09-03T15:23:57.270Z,2.80
2022-09-03T15:27:20.956Z,2.95
2022-09-03T15:30:26.975Z,3.05
2022-09-03T15:33:39.325Z,3.40
2022-09-03T15:36:49.612Z,3.40
2022-09-03T15:40:06.890Z,3.17
2022-09-03T15:43:27.665Z,3.15
2022-09-03T15:46:54.572Z,2.75
2022-09-03T15:50:08.442Z,3.13
2022-09-03T15:53:25.767Z,3.20
2022-09-03T15:56:38.297Z,3.20
2022-09-03T15:59:55.399Z,3.83
2022-09-03T16:03:11.564Z,3.50
2022-09-03T16:06:37.530Z,3.22
2022-09-03T16:10:22.795Z,3.10
2022-09-03T16:13:42.158Z,3.20
2022-09-03T16:17:00.972Z,3.28
2022-09-03T16:20:18.580Z,2.65
2022-09-03T16:23:31.712Z,3.42
2022-09-03T16:26:44.321Z,3.17
2022-09-03T16:30:00.950Z,3.50
2022-09-03T16:33:24.741Z,4.10
2022-09-03T16:36:41.533Z,3.60
2022-09-03T16:39:58.311Z,3.40
2022-09-03T16:43:36.827Z,3.50
2022-09-03T16:46:45.863Z,3.55
2022-09-03T16:50:08.428Z,3.77
2022-09-03T16:53:19.798Z,4.67
2022-09-03T16:56:41.554Z,3.43
2022-09-03T17:00:08.683Z,3.50
2022-09-03T17:03:38.127Z,3.77
2022-09-03T17:07:07.379Z,3.80
2022-09-03T17:10:25.247Z,3.80
2022-09-03T17:13:48.666Z,4.20
2022-09-03T17:17:08.906Z,4.70
2022-09-03T17:20:21.790Z,4.70
2022-09-03T17:24:03.773Z,4.17
2022-09-03T17:27:50.142Z,4.33
2022-09-03T17:31:00.923Z,4.33
2022-09-03T17:34:17.753Z,4.53
2022-09-03T17:37:38.253Z,4.57
2022-09-03T17:40:59.238Z,4.70
2022-09-03T17:44:16.920Z,4.80
2022-09-03T17:48:11.659Z,5.23
2022-09-03T17:51:29.832Z,5.97
2022-09-03T17:54:44.183Z,5.60
2022-09-03T17:57:57.251Z,5.57
2022-09-03T18:01:14.335Z,5.57
2022-09-03T18:04:42.914Z,5.30
2022-09-03T18:07:56.862Z,5.53
2022-09-03T18:11:13.450Z,4.77
2022-09-03T18:14:27.546Z,4.70
2022-09-03T18:17:41.140Z,5.57
2022-09-03T18:21:24.052Z,5.10
2022-09-03T18:24:52.917Z,5.60
2022-09-03T18:28:19.162Z,4.87
2022-09-03T18:31:43.725Z,4.67
2022-09-03T18:35:06.698Z,4.93
2022-09-03T18:38:28.260Z,5.67
2022-09-03T18:42:06.743Z,5.30
2022-09-03T18:46:20.016Z,5.00
2022-09-03T18:49:35.271Z,5.23
2022-09-03T18:53:07.898Z,5.47
2022-09-03T18:56:41.491Z,5.27
2022-09-03T19:00:19.051Z,5.80
2022-09-03T19:03:51.470Z,5.40
2022-09-03T19:07:24.369Z,5.37
2022-09-03T19:11:01.244Z,5.33
2022-09-03T19:14:32.683Z,5.63
2022-09-03T19:18:13.031Z,5.63
2022-09-03T19:21:46.611Z,6.33
2022-09-03T19:25:18.679Z,6.73
2022-09-03T19:28:42.176Z,6.00
2022-09-03T19:32:08.078Z,5.80
2022-09-03T19:35:37.136Z,5.87
2022-09-03T19:39:17.118Z,6.27
2022-09-03T19:42:50.442Z,5.57
2022-09-03T19:46:22.346Z,6.30
2022-09-03T19:49:56.853Z,6.30
2022-09-03T19:53:23.147Z,6.37
2022-09-03T19:56:47.591Z,5.80
2022-09-03T20:00:12.871Z,6.50
2022-09-03T20:03:40.165Z,7.10
2022-09-03T20:07:04.869Z,7.07
2022-09-03T20:10:23.309Z,7.00
2022-09-03T20:13:50.313Z,6.47
2022-09-03T20:17:15.284Z,7.70
2022-09-03T20:20:27.711Z,6.97
2022-09-03T20:23:38.990Z,7.33
2022-09-03T20:26:55.324Z,7.57
2022-09-03T20:30:06.846Z,7.33
2022-09-03T20:33:29.821Z,7.07
2022-09-03T20:36:49.766Z,7.10
2022-09-03T20:40:13.001Z,6.97
2022-09-03T20:43:41.665Z,6.50
2022-09-03T20:47:03.897Z,6.80
2022-09-03T20:50:24.851Z,6.80
2022-09-03T20:53:54.658Z,7.73
2022-09-03T20:57:21.379Z,8.23
2022-09-03T21:00:28.213Z,8.97
2022-09-03T21:03:38.632Z,9.50
2022-09-03T21:06:56.885Z,9.87
2022-09-03T21:10:08.499Z,10.93
2022-09-03T21:13:25.458Z,9.40
2022-09-03T21:16:41.426Z,9.23
2022-09-03T21:20:01.413Z,8.97
2022-09-03T21:23:20.842Z,7.70
2022-09-03T21:26:31.478Z,8.30
2022-09-03T21:29:43.776Z,7.57
2022-09-03T21:32:54.557Z,6.90
2022-09-03T21:36:09.943Z,6.73
2022-09-03T21:39:24.460Z,7.20
2022-09-03T21:42:36.738Z,7.00
2022-09-03T21:45:50.310Z,7.40
2022-09-03T21:49:01.299Z,7.83
2022-09-03T21:52:11.961Z,7.67
2022-09-03T21:55:31.606Z,7.60
2022-09-03T21:58:55.753Z,6.80
2022-09-03T22:02:09.609Z,7.20
2022-09-03T22:05:17.781Z,7.07
2022-09-03T22:08:29.504Z,7.50
2022-09-03T22:11:48.040Z,6.87
2022-09-03T22:14:56.868Z,7.10
2022-09-03T22:18:15.623Z,6.10
2022-09-03T22:21:26.029Z,6.20
2022-09-03T22:24:42.553Z,6.00
2022-09-03T22:28:03.623Z,5.73
2022-09-03T22:31:20.457Z,5.67
2022-09-03T22:34:50.988Z,5.30
2022-09-03T22:38:08.478Z,5.30
2022-09-03T22:41:30.583Z,5.20
2022-09-03T22:44:59.856Z,5.37
2022-09-03T22:48:17.839Z,5.00
2022-09-03T22:51:24.861Z,5.10
2022-09-03T22:54:55.357Z,4.27
2022-09-03T22:58:06.912Z,4.40
2022-09-03T23:01:21.349Z,4.40
2022-09-03T23:04:33.878Z,4.80
2022-09-03T23:07:52.944Z,4.57
2022-09-03T23:11:06.635Z,3.90
2022-09-03T23:14:15.462Z,4.03
2022-09-03T23:20:40.451Z,3.90
2022-09-03T23:23:54.262Z,4.30
2022-09-03T23:27:03.578Z,4.53
2022-09-03T23:30:11.446Z,4.57
2022-09-03T23:33:20.102Z,4.50
2022-09-03T23:40:26.420Z,5.30
2022-09-03T23:43:59.362Z,5.30
2022-09-03T23:47:19.967Z,5.77
2022-09-03T23:50:45.264Z,7.60
2022-09-03T23:54:07.555Z,7.80
2022-09-03T23:57:25.033Z,10.30
